createdAt,value
2023-03-16T00:00:57.699Z,33.43
2023-03-16T00:03:25.689Z,34.03
2023-03-16T00:05:54.970Z,34.00
2023-03-16T00:08:23.349Z,29.63
2023-03-16T00:10:54.315Z,28.50
2023-03-16T00:13:24.132Z,29.10
2023-03-16T00:16:00.277Z,34.40
2023-03-16T00:18:29.117Z,32.97
2023-03-16T00:20:59.366Z,32.90
2023-03-16T00:23:27.635Z,28.87
2023-03-16T00:26:00.447Z,31.07
2023-03-16T00:28:28.769Z,37.00
2023-03-16T00:30:59.325Z,39.93
2023-03-16T00:33:27.486Z,40.20
2023-03-16T00:36:03.990Z,34.17
2023-03-16T00:38:36.545Z,36.37
2023-03-16T00:41:06.763Z,28.00
2023-03-16T00:43:41.395Z,30.40
2023-03-16T00:46:15.433Z,29.77
2023-03-16T00:48:45.998Z,31.37
2023-03-16T00:51:16.325Z,29.57
2023-03-16T00:53:45.145Z,37.40
2023-03-16T00:56:13.887Z,36.13
2023-03-16T00:58:43.418Z,30.57
2023-03-16T01:01:19.720Z,37.27
2023-03-16T01:03:48.786Z,39.50
2023-03-16T01:06:17.772Z,36.33
2023-03-16T01:08:45.888Z,35.03
2023-03-16T01:11:18.891Z,32.80
2023-03-16T01:13:49.934Z,34.47
2023-03-16T01:16:23.440Z,38.80
2023-03-16T01:18:52.756Z,37.57
2023-03-16T01:21:22.304Z,33.97
2023-03-16T01:23:50.993Z,45.73
2023-03-16T01:26:20.666Z,60.67
2023-03-16T01:28:49.583Z,47.43
2023-03-16T01:31:17.680Z,53.10
2023-03-16T01:33:45.719Z,63.73
2023-03-16T01:36:18.992Z,54.87
2023-03-16T01:39:16.108Z,58.67
2023-03-16T01:41:48.544Z,45.53
2023-03-16T01:44:23.177Z,39.93
2023-03-16T01:46:51.292Z,38.30
2023-03-16T01:49:25.828Z,35.73
2023-03-16T01:52:01.606Z,37.67
2023-03-16T01:54:58.282Z,35.40
2023-03-16T01:57:37.031Z,33.47
2023-03-16T02:00:22.110Z,32.73
2023-03-16T02:03:10.540Z,32.40
2023-03-16T02:06:00.089Z,38.60
2023-03-16T02:08:30.048Z,33.90
2023-03-16T02:10:57.850Z,36.50
2023-03-16T02:13:37.217Z,30.53
2023-03-16T02:16:08.483Z,35.00
2023-03-16T02:18:36.992Z,27.53
2023-03-16T02:21:21.723Z,35.23
2023-03-16T02:23:51.641Z,29.93
2023-03-16T02:26:50.565Z,32.57
2023-03-16T02:30:00.147Z,42.17
2023-03-16T02:32:32.652Z,33.43
2023-03-16T02:35:03.200Z,31.37
2023-03-16T02:37:33.989Z,29.77
2023-03-16T02:40:06.203Z,34.30
2023-03-16T02:42:34.265Z,29.60
2023-03-16T02:45:02.839Z,26.10
2023-03-16T02:47:35.361Z,28.30
2023-03-16T02:50:06.769Z,27.27
2023-03-16T02:52:35.904Z,25.50
2023-03-16T02:55:04.864Z,27.23
2023-03-16T02:57:32.611Z,32.33
2023-03-16T03:00:13.396Z,41.13
2023-03-16T03:02:41.980Z,28.00
2023-03-16T03:05:10.256Z,30.67
2023-03-16T03:07:38.006Z,30.40
2023-03-16T03:10:08.917Z,28.43
2023-03-16T03:12:36.603Z,29.33
2023-03-16T03:15:08.318Z,29.43
2023-03-16T03:17:44.779Z,32.50
2023-03-16T03:20:18.415Z,26.90
2023-03-16T03:22:48.928Z,27.43
2023-03-16T03:25:18.690Z,27.43
2023-03-16T03:27:47.749Z,31.27
2023-03-16T03:30:24.875Z,28.93
2023-03-16T03:32:53.094Z,30.63
2023-03-16T03:35:22.821Z,24.83
2023-03-16T03:37:51.230Z,35.23
2023-03-16T03:40:20.387Z,31.00
2023-03-16T03:42:51.723Z,38.17
2023-03-16T03:45:19.759Z,31.47
2023-03-16T03:47:47.773Z,45.80
2023-03-16T03:50:20.338Z,32.90
2023-03-16T03:52:55.449Z,34.50
2023-03-16T03:55:23.468Z,30.23
2023-03-16T03:57:51.167Z,32.50
2023-03-16T04:00:22.124Z,31.57
2023-03-16T04:02:50.518Z,37.63
2023-03-16T04:05:29.309Z,31.43
2023-03-16T04:07:57.743Z,29.97
2023-03-16T04:10:29.989Z,33.07
2023-03-16T04:12:59.943Z,36.83
2023-03-16T04:15:33.088Z,36.63
2023-03-16T04:18:10.003Z,31.90
2023-03-16T04:20:38.482Z,32.53
2023-03-16T04:23:06.901Z,28.87
2023-03-16T04:25:38.672Z,31.23
2023-03-16T04:28:07.343Z,31.67
2023-03-16T04:30:37.793Z,32.30
2023-03-16T04:33:22.700Z,35.10
2023-03-16T04:35:52.384Z,36.77
2023-03-16T04:38:22.273Z,51.33
2023-03-16T04:40:55.791Z,39.63
2023-03-16T04:43:27.720Z,48.33
2023-03-16T04:46:01.739Z,40.20
2023-03-16T04:48:32.513Z,38.20
2023-03-16T04:51:01.760Z,38.17
2023-03-16T04:53:33.142Z,30.80
2023-03-16T04:56:08.268Z,21.93
2023-03-16T04:58:36.720Z,29.87
2023-03-16T05:01:05.971Z,29.63
2023-03-16T05:03:35.016Z,33.80
2023-03-16T05:06:05.386Z,33.53
2023-03-16T05:08:35.246Z,31.23
2023-03-16T05:11:03.878Z,26.13
2023-03-16T05:13:36.397Z,29.87
2023-03-16T05:16:05.724Z,31.83
2023-03-16T05:18:37.945Z,33.73
2023-03-16T05:21:06.267Z,30.07
2023-03-16T05:23:46.466Z,34.43
2023-03-16T05:26:14.950Z,26.90
2023-03-16T05:28:42.754Z,33.70
2023-03-16T05:31:13.920Z,36.60
2023-03-16T05:33:50.464Z,30.60
2023-03-16T05:36:21.190Z,36.87
2023-03-16T05:38:53.924Z,35.03
2023-03-16T05:41:31.945Z,36.43
2023-03-16T05:44:04.658Z,34.53
2023-03-16T05:46:58.527Z,29.37
2023-03-16T05:49:27.329Z,30.87
2023-03-16T05:51:55.915Z,38.93
2023-03-16T05:54:24.286Z,29.53
2023-03-16T05:56:52.347Z,29.27
2023-03-16T05:59:19.967Z,27.23
2023-03-16T06:01:54.122Z,35.67
2023-03-16T06:04:22.613Z,28.60
2023-03-16T06:06:51.250Z,35.17
2023-03-16T06:09:25.582Z,31.47
2023-03-16T06:11:54.220Z,27.63
2023-03-16T06:14:23.354Z,35.17
2023-03-16T06:16:52.565Z,29.13
2023-03-16T06:19:21.804Z,32.57
2023-03-16T06:21:56.367Z,25.23
2023-03-16T06:24:24.260Z,27.30
2023-03-16T06:26:52.676Z,28.10
2023-03-16T06:29:22.465Z,21.10
2023-03-16T06:31:52.588Z,16.87
2023-03-16T06:34:21.372Z,21.97
2023-03-16T06:36:49.791Z,14.77
2023-03-16T06:39:17.648Z,16.07
2023-03-16T06:41:49.218Z,16.20
2023-03-16T06:44:18.364Z,12.50
2023-03-16T06:46:57.120Z,11.93
2023-03-16T06:49:25.038Z,15.70
2023-03-16T06:51:53.669Z,14.60
2023-03-16T06:54:21.894Z,15.03
2023-03-16T06:56:50.097Z,11.70
2023-03-16T06:59:18.117Z,18.17
2023-03-16T07:01:46.517Z,14.67
2023-03-16T07:04:14.229Z,11.57
2023-03-16T07:07:01.679Z,12.47
2023-03-16T07:09:29.874Z,14.97
2023-03-16T07:11:58.030Z,11.50
2023-03-16T07:14:26.858Z,17.43
2023-03-16T07:16:57.512Z,21.93
2023-03-16T07:19:27.523Z,15.97
2023-03-16T07:21:58.171Z,14.83
2023-03-16T07:24:27.293Z,13.70
2023-03-16T07:26:55.397Z,18.60
2023-03-16T07:29:29.243Z,10.17
2023-03-16T07:31:59.610Z,12.27
2023-03-16T07:34:35.437Z,14.50
2023-03-16T07:37:03.951Z,10.20
2023-03-16T07:39:33.643Z,11.83
2023-03-16T07:42:08.583Z,15.93
2023-03-16T07:44:51.668Z,19.53
2023-03-16T07:47:26.568Z,21.43
2023-03-16T07:49:57.998Z,12.60
2023-03-16T07:52:26.433Z,19.37
2023-03-16T07:54:55.303Z,55.17
2023-03-16T07:57:23.529Z,17.67
2023-03-16T07:59:51.904Z,12.70
2023-03-16T08:02:21.943Z,12.57
2023-03-16T08:04:51.605Z,17.47
2023-03-16T08:07:21.928Z,12.00
2023-03-16T08:09:58.788Z,13.97
2023-03-16T08:12:44.377Z,10.77
2023-03-16T08:15:12.501Z,18.03
2023-03-16T08:17:41.918Z,13.60
2023-03-16T08:20:15.070Z,13.77
2023-03-16T08:22:49.795Z,12.90
2023-03-16T08:25:24.067Z,16.13
2023-03-16T08:28:04.547Z,10.77
2023-03-16T08:30:32.347Z,25.30
2023-03-16T08:33:14.949Z,26.03
2023-03-16T08:35:46.645Z,11.23
2023-03-16T08:38:16.310Z,13.17
2023-03-16T08:40:48.695Z,13.70
2023-03-16T08:43:19.602Z,18.57
2023-03-16T08:45:49.255Z,17.60
2023-03-16T08:48:20.236Z,36.40
2023-03-16T08:50:51.906Z,24.33
2023-03-16T08:53:21.160Z,13.13
2023-03-16T08:55:49.093Z,11.93
2023-03-16T08:58:19.990Z,14.23
2023-03-16T09:00:50.194Z,13.33
2023-03-16T09:03:20.563Z,10.40
2023-03-16T09:05:49.603Z,13.13
2023-03-16T09:08:18.506Z,14.50
2023-03-16T09:10:46.912Z,14.23
2023-03-16T09:13:15.003Z,15.07
2023-03-16T09:15:45.397Z,12.03
2023-03-16T09:18:13.791Z,12.93
2023-03-16T09:20:41.167Z,10.47
2023-03-16T09:23:08.883Z,12.73
2023-03-16T09:25:36.261Z,15.33
2023-03-16T09:28:03.924Z,12.50
2023-03-16T09:30:32.076Z,13.50
2023-03-16T09:33:01.108Z,20.33
2023-03-16T09:35:28.659Z,11.33
2023-03-16T09:38:06.637Z,15.67
2023-03-16T09:40:36.947Z,11.50
2023-03-16T09:43:44.168Z,9.73
2023-03-16T09:46:25.138Z,7.07
2023-03-16T09:48:53.444Z,12.60
2023-03-16T09:51:31.209Z,7.77
2023-03-16T09:54:03.278Z,8.20
2023-03-16T09:56:41.447Z,11.20
2023-03-16T09:59:14.299Z,9.23
2023-03-16T10:01:52.453Z,5.80
2023-03-16T10:04:45.168Z,7.20
2023-03-16T10:07:26.661Z,8.07
2023-03-16T10:09:57.846Z,10.43
2023-03-16T10:12:30.112Z,14.43
2023-03-16T10:15:06.191Z,10.93
2023-03-16T10:17:46.222Z,13.83
2023-03-16T10:20:22.353Z,10.60
2023-03-16T10:22:52.598Z,25.77
2023-03-16T10:25:26.746Z,21.13
2023-03-16T10:27:54.505Z,11.70
2023-03-16T10:30:26.227Z,10.57
2023-03-16T10:32:54.699Z,14.43
2023-03-16T10:35:23.644Z,19.70
2023-03-16T10:37:53.227Z,24.63
2023-03-16T10:40:21.224Z,22.53
2023-03-16T10:42:49.177Z,29.97
2023-03-16T10:45:35.482Z,12.00
2023-03-16T10:48:08.359Z,17.47
2023-03-16T10:50:37.053Z,16.27
2023-03-16T10:53:04.872Z,41.40
2023-03-16T10:55:41.942Z,30.30
2023-03-16T10:58:10.371Z,22.50
2023-03-16T11:00:43.319Z,15.93
2023-03-16T11:03:25.377Z,19.60
2023-03-16T11:06:03.450Z,17.87
2023-03-16T11:08:35.426Z,24.20
2023-03-16T11:11:12.031Z,23.73
2023-03-16T11:13:45.104Z,35.20
2023-03-16T11:16:29.439Z,45.60
2023-03-16T11:19:20.799Z,14.20
2023-03-16T11:21:55.319Z,25.57
2023-03-16T11:24:43.283Z,16.43
2023-03-16T11:27:37.764Z,56.10
2023-03-16T11:30:39.881Z,21.47
2023-03-16T11:33:14.276Z,15.23
2023-03-16T11:35:58.069Z,21.77
2023-03-16T11:38:52.531Z,73.20
2023-03-16T11:41:37.983Z,38.03
2023-03-16T11:44:36.686Z,42.00
2023-03-16T11:47:26.654Z,20.80
2023-03-16T11:50:08.451Z,17.47
2023-03-16T11:52:47.257Z,40.17
2023-03-16T11:55:41.119Z,28.87
2023-03-16T11:58:28.896Z,28.03
2023-03-16T12:01:03.384Z,30.07
2023-03-16T12:03:40.595Z,36.63
2023-03-16T12:06:24.711Z,34.43
2023-03-16T12:09:25.417Z,12.70
2023-03-16T12:12:09.438Z,21.80
2023-03-16T12:14:44.292Z,7.93
2023-03-16T12:17:16.130Z,15.43
2023-03-16T12:19:55.561Z,8.90
2023-03-16T12:22:40.527Z,9.80
2023-03-16T12:25:25.227Z,8.67
2023-03-16T12:27:58.331Z,9.77
2023-03-16T12:30:38.853Z,7.60
2023-03-16T12:33:29.533Z,8.60
2023-03-16T12:36:08.063Z,5.33
2023-03-16T12:38:54.297Z,11.03
2023-03-16T12:41:47.996Z,5.93
2023-03-16T12:44:17.649Z,9.70
2023-03-16T12:46:54.499Z,12.10
2023-03-16T12:49:25.962Z,10.17
2023-03-16T12:52:22.645Z,10.00
2023-03-16T12:55:15.636Z,17.80
2023-03-16T12:57:45.926Z,16.83
2023-03-16T13:00:16.820Z,18.07
2023-03-16T13:02:51.882Z,16.80
2023-03-16T13:05:33.286Z,15.33
2023-03-16T13:08:22.607Z,18.23
2023-03-16T13:11:07.763Z,15.30
2023-03-16T13:13:37.555Z,15.83
2023-03-16T13:16:10.219Z,12.30
2023-03-16T13:18:42.041Z,19.90
2023-03-16T13:21:21.925Z,10.57
2023-03-16T13:23:54.583Z,6.17
2023-03-16T13:26:32.310Z,13.03
2023-03-16T13:29:00.732Z,15.70
2023-03-16T13:31:39.456Z,22.63
2023-03-16T13:34:08.569Z,9.80
2023-03-16T13:36:37.887Z,9.60
2023-03-16T13:39:19.256Z,7.17
2023-03-16T13:41:57.577Z,5.67
2023-03-16T13:44:25.441Z,8.20
2023-03-16T13:46:54.488Z,9.67
2023-03-16T13:49:23.041Z,17.27
2023-03-16T13:51:50.977Z,17.37
2023-03-16T13:54:28.515Z,13.13
2023-03-16T13:56:59.259Z,7.33
2023-03-16T13:59:27.184Z,9.67
2023-03-16T14:02:02.133Z,12.40
2023-03-16T14:04:32.073Z,16.63
2023-03-16T14:07:02.335Z,7.33
2023-03-16T14:09:35.535Z,9.50
2023-03-16T14:12:03.803Z,6.13
2023-03-16T14:14:39.877Z,22.77
2023-03-16T14:17:17.469Z,68.27
2023-03-16T14:19:50.706Z,24.63
2023-03-16T14:22:18.678Z,17.00
2023-03-16T14:24:53.387Z,53.43
2023-03-16T14:27:32.932Z,45.37
2023-03-16T14:30:09.483Z,20.40
2023-03-16T14:32:37.472Z,14.83
2023-03-16T14:35:17.614Z,13.23
2023-03-16T14:37:45.180Z,13.17
2023-03-16T14:40:32.961Z,20.93
2023-03-16T14:43:04.453Z,20.80
2023-03-16T14:45:34.548Z,33.77
2023-03-16T14:48:17.290Z,24.47
2023-03-16T14:50:45.048Z,16.37
2023-03-16T14:53:13.277Z,17.63
2023-03-16T14:55:40.960Z,13.00
2023-03-16T14:58:10.271Z,20.87
2023-03-16T15:00:51.985Z,22.03
2023-03-16T15:03:27.166Z,18.00
2023-03-16T15:05:55.310Z,23.60
2023-03-16T15:08:27.818Z,26.63
2023-03-16T15:11:07.062Z,23.97
2023-03-16T15:13:53.172Z,116.70
2023-03-16T15:16:23.935Z,217.30
2023-03-16T15:18:52.922Z,88.63
2023-03-16T15:21:25.276Z,9.87
2023-03-16T15:23:53.408Z,185.43
2023-03-16T15:26:26.454Z,33.53
2023-03-16T15:28:56.663Z,74.73
2023-03-16T15:31:24.952Z,169.40
2023-03-16T15:33:53.237Z,82.73
2023-03-16T15:36:23.620Z,21.63
2023-03-16T15:38:54.943Z,15.83
2023-03-16T15:41:23.710Z,26.43
2023-03-16T15:44:00.774Z,47.30
2023-03-16T15:46:31.375Z,33.03
2023-03-16T15:49:00.458Z,29.53
2023-03-16T15:51:31.031Z,44.43
2023-03-16T15:54:08.669Z,33.43
2023-03-16T15:56:53.277Z,30.83
2023-03-16T15:59:24.324Z,30.77
2023-03-16T16:01:53.621Z,41.63
2023-03-16T16:04:24.924Z,25.27
2023-03-16T16:06:56.986Z,25.83
2023-03-16T16:09:25.615Z,40.07
2023-03-16T16:11:53.451Z,46.87
2023-03-16T16:14:25.196Z,67.67
2023-03-16T16:16:54.550Z,88.20
2023-03-16T16:19:22.454Z,22.17
2023-03-16T16:21:50.491Z,31.17
2023-03-16T16:24:18.502Z,72.87
2023-03-16T16:26:55.168Z,82.63
2023-03-16T16:29:27.277Z,21.50
2023-03-16T16:31:55.832Z,11.53
2023-03-16T16:34:25.204Z,9.57
2023-03-16T16:36:54.912Z,12.10
2023-03-16T16:39:23.257Z,44.17
2023-03-16T16:41:54.902Z,23.70
2023-03-16T16:44:33.582Z,34.87
2023-03-16T16:47:03.907Z,26.63
2023-03-16T16:49:32.373Z,28.80
2023-03-16T16:52:01.264Z,22.40
2023-03-16T16:54:31.437Z,20.07
2023-03-16T16:57:01.585Z,12.57
2023-03-16T16:59:34.874Z,17.97
2023-03-16T17:02:12.893Z,12.30
2023-03-16T17:04:40.683Z,13.43
2023-03-16T17:07:12.556Z,16.27
2023-03-16T17:09:40.277Z,15.13
2023-03-16T17:12:18.057Z,16.17
2023-03-16T17:14:45.917Z,13.03
2023-03-16T17:17:19.480Z,12.83
2023-03-16T17:19:48.341Z,16.87
2023-03-16T17:22:24.773Z,16.93
2023-03-16T17:24:54.216Z,15.63
2023-03-16T17:27:29.875Z,15.53
2023-03-16T17:29:58.244Z,16.07
2023-03-16T17:32:26.866Z,18.00
2023-03-16T17:34:54.797Z,12.00
2023-03-16T17:37:23.358Z,11.17
2023-03-16T17:39:52.159Z,13.67
2023-03-16T17:42:23.101Z,16.43
2023-03-16T17:44:52.738Z,17.83
2023-03-16T17:47:21.006Z,16.60
2023-03-16T17:49:49.321Z,12.23
2023-03-16T17:52:20.673Z,15.33
2023-03-16T17:54:49.330Z,11.30
2023-03-16T17:57:24.521Z,9.20
2023-03-16T17:59:52.619Z,11.93
2023-03-16T18:02:50.196Z,10.17
2023-03-16T18:05:25.761Z,12.33
2023-03-16T18:07:55.114Z,13.10
2023-03-16T18:10:32.189Z,11.27
2023-03-16T18:13:08.077Z,12.47
2023-03-16T18:15:39.490Z,11.23
2023-03-16T18:18:08.182Z,19.57
2023-03-16T18:20:36.966Z,18.93
2023-03-16T18:23:21.619Z,12.17
2023-03-16T18:25:52.716Z,11.73
2023-03-16T18:28:22.647Z,15.07
2023-03-16T18:30:53.041Z,8.53
2023-03-16T18:33:26.217Z,9.00
2023-03-16T18:35:57.016Z,11.40
2023-03-16T18:38:46.739Z,7.30
2023-03-16T18:41:27.165Z,8.20
2023-03-16T18:43:58.159Z,14.30
2023-03-16T18:46:37.390Z,12.03
2023-03-16T18:49:33.563Z,18.97
2023-03-16T18:52:01.816Z,17.17
2023-03-16T18:54:35.741Z,24.67
2023-03-16T18:57:11.081Z,18.80
2023-03-16T18:59:39.686Z,12.60
2023-03-16T19:02:18.727Z,10.37
2023-03-16T19:04:47.251Z,6.13
2023-03-16T19:07:43.060Z,9.03
2023-03-16T19:10:27.966Z,9.90
2023-03-16T19:12:56.628Z,11.30
2023-03-16T19:15:29.834Z,12.40
2023-03-16T19:17:59.055Z,16.33
2023-03-16T19:20:31.489Z,14.37
2023-03-16T19:23:15.263Z,22.97
2023-03-16T19:25:43.705Z,21.53
2023-03-16T19:28:37.580Z,60.07
2023-03-16T19:31:27.483Z,102.03
2023-03-16T19:33:57.193Z,95.80
2023-03-16T19:36:30.757Z,92.80
2023-03-16T19:38:59.559Z,81.67
2023-03-16T19:41:37.611Z,103.03
2023-03-16T19:44:09.337Z,119.80
2023-03-16T19:46:38.213Z,103.40
2023-03-16T19:49:10.274Z,89.43
2023-03-16T19:51:38.789Z,67.50
2023-03-16T19:54:06.299Z,52.37
2023-03-16T19:56:34.905Z,53.57
2023-03-16T19:59:02.825Z,41.80
2023-03-16T20:01:33.844Z,44.77
2023-03-16T20:04:04.459Z,65.30
2023-03-16T20:06:33.568Z,73.63
2023-03-16T20:09:01.797Z,86.93
2023-03-16T20:11:31.868Z,101.47
2023-03-16T20:14:00.235Z,60.93
2023-03-16T20:16:33.195Z,43.70
2023-03-16T20:19:03.307Z,21.23
2023-03-16T20:21:31.756Z,15.77
2023-03-16T20:23:59.731Z,16.07
2023-03-16T20:26:32.801Z,17.33
2023-03-16T20:29:02.144Z,15.43
2023-03-16T20:31:34.663Z,13.27
2023-03-16T20:34:03.729Z,8.73
2023-03-16T20:36:32.911Z,14.50
2023-03-16T20:39:01.604Z,11.23
2023-03-16T20:41:33.124Z,12.10
2023-03-16T20:44:02.438Z,14.13
2023-03-16T20:46:32.937Z,15.60
2023-03-16T20:49:01.072Z,22.23
2023-03-16T20:51:29.380Z,25.47
2023-03-16T20:53:57.430Z,31.73
2023-03-16T20:56:27.005Z,29.80
2023-03-16T20:58:56.284Z,29.57
2023-03-16T21:01:25.199Z,22.17
2023-03-16T21:03:55.448Z,15.93
2023-03-16T21:06:26.273Z,18.53
2023-03-16T21:08:55.096Z,14.00
2023-03-16T21:11:36.904Z,15.30
2023-03-16T21:14:05.428Z,16.53
2023-03-16T21:16:34.176Z,20.30
2023-03-16T21:19:02.084Z,22.37
2023-03-16T21:21:30.989Z,19.00
2023-03-16T21:24:01.082Z,23.10
2023-03-16T21:26:34.067Z,32.07
2023-03-16T21:29:08.475Z,26.67
2023-03-16T21:31:36.662Z,24.13
2023-03-16T21:34:06.355Z,17.80
2023-03-16T21:36:36.535Z,16.17
2023-03-16T21:39:14.305Z,15.77
2023-03-16T21:41:42.318Z,13.60
2023-03-16T21:44:10.314Z,11.93
2023-03-16T21:46:39.430Z,11.57
2023-03-16T21:49:12.242Z,14.80
2023-03-16T21:51:43.248Z,14.17
2023-03-16T21:54:16.231Z,19.87
2023-03-16T21:56:46.779Z,20.23
2023-03-16T21:59:16.286Z,15.90
2023-03-16T22:01:58.647Z,17.90
2023-03-16T22:04:29.223Z,15.10
2023-03-16T22:06:57.598Z,22.90
2023-03-16T22:09:30.085Z,17.80
2023-03-16T22:11:58.702Z,21.87
2023-03-16T22:14:27.451Z,21.10
2023-03-16T22:16:56.771Z,26.33
2023-03-16T22:19:25.979Z,43.93
2023-03-16T22:21:57.311Z,49.77
2023-03-16T22:24:30.666Z,51.90
2023-03-16T22:26:58.979Z,54.17
2023-03-16T22:29:34.537Z,52.80
2023-03-16T22:32:08.661Z,45.13
2023-03-16T22:34:39.524Z,46.53
2023-03-16T22:37:09.020Z,49.33
2023-03-16T22:39:38.944Z,52.77
2023-03-16T22:42:24.818Z,37.60
2023-03-16T22:44:52.752Z,26.80
2023-03-16T22:47:27.160Z,27.07
2023-03-16T22:49:56.394Z,31.47
2023-03-16T22:52:27.507Z,28.13
2023-03-16T22:54:55.545Z,33.97
2023-03-16T22:57:23.605Z,28.20
2023-03-16T22:59:51.907Z,35.13
2023-03-16T23:02:22.232Z,31.03
2023-03-16T23:04:49.887Z,25.57
2023-03-16T23:07:18.370Z,26.17
2023-03-16T23:09:49.410Z,31.47
2023-03-16T23:12:22.077Z,25.83
2023-03-16T23:14:49.751Z,16.70
2023-03-16T23:17:18.986Z,16.97
2023-03-16T23:19:48.254Z,19.67
2023-03-16T23:22:16.404Z,14.50
2023-03-16T23:24:44.139Z,16.53
2023-03-16T23:27:17.665Z,16.00
2023-03-16T23:29:46.020Z,15.63
2023-03-16T23:32:16.985Z,16.13
2023-03-16T23:34:45.004Z,18.97
2023-03-16T23:37:13.023Z,20.87
2023-03-16T23:39:40.786Z,26.07
2023-03-16T23:42:08.959Z,21.77
2023-03-16T23:44:36.694Z,25.50
2023-03-16T23:47:04.661Z,25.63
2023-03-16T23:49:36.002Z,25.77
2023-03-16T23:52:04.636Z,25.03
2023-03-16T23:54:32.762Z,23.57
2023-03-16T23:57:01.057Z,23.83
2023-03-16T23:59:28.942Z,24.47
